createdAt,value
2019-05-29T00:01:00.038Z,11.69
2019-05-29T00:02:00.025Z,11.57
2019-05-29T00:03:00.047Z,11.45
2019-05-29T00:04:00.063Z,11.44
2019-05-29T00:05:00.085Z,11.35
2019-05-29T00:06:00.098Z,11.41
2019-05-29T00:07:00.112Z,11.50
2019-05-29T00:08:00.136Z,11.48
2019-05-29T00:09:00.144Z,11.44
2019-05-29T00:10:00.159Z,11.52
2019-05-29T00:11:00.175Z,11.55
2019-05-29T00:12:00.196Z,11.68
2019-05-29T00:13:00.213Z,11.69
2019-05-29T00:14:00.231Z,11.47
2019-05-29T00:15:00.245Z,11.41
2019-05-29T00:16:00.260Z,11.50
2019-05-29T00:17:00.279Z,11.40
2019-05-29T00:18:00.295Z,11.50
2019-05-29T00:19:00.312Z,11.54
2019-05-29T00:20:00.328Z,11.52
2019-05-29T00:21:00.348Z,11.62
2019-05-29T00:22:00.368Z,11.60
2019-05-29T00:23:00.403Z,11.47
2019-05-29T00:24:00.397Z,11.43
2019-05-29T00:25:00.535Z,11.50
2019-05-29T00:26:00.430Z,11.40
2019-05-29T00:27:00.447Z,11.44
2019-05-29T00:28:00.462Z,11.44
2019-05-29T00:29:00.480Z,11.62
2019-05-29T00:30:00.495Z,11.57
2019-05-29T00:31:00.522Z,11.70
2019-05-29T00:32:00.539Z,11.60
2019-05-29T00:33:00.542Z,11.78
2019-05-29T00:34:00.565Z,11.66
2019-05-29T00:35:00.577Z,11.68
2019-05-29T00:36:00.592Z,11.65
2019-05-29T00:37:00.614Z,11.52
2019-05-29T00:38:00.627Z,11.47
2019-05-29T00:39:00.644Z,11.52
2019-05-29T00:40:00.658Z,11.54
2019-05-29T00:41:00.679Z,11.65
2019-05-29T00:42:00.695Z,11.69
2019-05-29T00:43:00.710Z,11.62
2019-05-29T00:44:00.729Z,11.48
2019-05-29T00:45:00.751Z,11.50
2019-05-29T00:46:00.764Z,11.48
2019-05-29T00:47:00.777Z,11.54
2019-05-29T00:48:00.802Z,11.60
2019-05-29T00:49:00.809Z,11.50
2019-05-29T00:50:00.825Z,11.43
2019-05-29T00:51:00.842Z,11.50
2019-05-29T00:52:00.867Z,11.62
2019-05-29T00:53:00.876Z,11.70
2019-05-29T00:54:00.909Z,11.68
2019-05-29T00:55:00.912Z,11.70
2019-05-29T00:56:00.940Z,11.59
2019-05-29T00:57:00.941Z,11.51
2019-05-29T00:58:00.962Z,11.41
2019-05-29T00:59:00.979Z,11.37
2019-05-29T01:00:00.999Z,11.41
2019-05-29T01:01:01.014Z,11.47
2019-05-29T01:02:01.042Z,11.57
2019-05-29T01:03:01.065Z,11.50
2019-05-29T01:04:01.224Z,11.37
2019-05-29T01:05:01.112Z,11.43
2019-05-29T01:06:01.124Z,11.40
2019-05-29T01:07:01.132Z,11.40
2019-05-29T01:08:01.162Z,11.40
2019-05-29T01:09:01.155Z,11.37
2019-05-29T01:10:01.165Z,11.44
2019-05-29T01:11:01.185Z,11.44
2019-05-29T01:12:01.193Z,11.44
2019-05-29T01:13:01.209Z,11.43
2019-05-29T01:14:01.229Z,11.54
2019-05-29T01:15:01.256Z,11.50
2019-05-29T01:16:01.256Z,11.57
2019-05-29T01:17:01.382Z,11.57
2019-05-29T01:18:01.306Z,11.50
2019-05-29T01:19:01.313Z,11.50
2019-05-29T01:20:01.331Z,11.47
2019-05-29T01:21:01.344Z,11.59
2019-05-29T01:22:01.373Z,11.54
2019-05-29T01:23:01.378Z,11.44
2019-05-29T01:24:01.391Z,11.29
2019-05-29T01:25:01.413Z,11.22
2019-05-29T01:26:01.422Z,11.18
2019-05-29T01:27:01.457Z,11.10
2019-05-29T01:28:01.458Z,11.17
2019-05-29T01:29:01.471Z,11.17
2019-05-29T01:30:01.493Z,11.08
2019-05-29T01:31:01.506Z,11.14
2019-05-29T01:32:01.522Z,11.18
2019-05-29T01:33:01.545Z,11.17
2019-05-29T01:34:01.556Z,11.14
2019-05-29T01:35:01.571Z,11.18
2019-05-29T01:36:01.589Z,11.17
2019-05-29T01:37:01.610Z,10.99
2019-05-29T01:38:01.619Z,10.94
2019-05-29T01:39:01.652Z,11.02
2019-05-29T01:40:16.585Z,11.04
2019-05-29T01:41:01.676Z,11.05
2019-05-29T01:42:01.693Z,11.07
2019-05-29T01:43:01.706Z,10.96
2019-05-29T01:44:01.721Z,10.67
2019-05-29T01:45:07.575Z,10.81
2019-05-29T01:46:01.751Z,10.84
2019-05-29T01:47:01.765Z,10.81
2019-05-29T01:48:01.785Z,10.68
2019-05-29T01:49:01.799Z,10.71
2019-05-29T01:50:01.825Z,10.61
2019-05-29T01:51:01.861Z,10.64
2019-05-29T01:52:01.849Z,10.64
2019-05-29T01:53:01.870Z,10.49
2019-05-29T01:54:01.886Z,10.48
2019-05-29T01:55:01.901Z,10.37
2019-05-29T01:56:01.914Z,10.26
2019-05-29T01:57:01.936Z,10.23
2019-05-29T01:58:01.949Z,10.26
2019-05-29T01:59:01.970Z,10.19
2019-05-29T02:00:01.984Z,10.28
2019-05-29T02:01:01.999Z,10.33
2019-05-29T02:02:02.010Z,10.30
2019-05-29T02:03:02.040Z,10.37
2019-05-29T02:04:02.050Z,10.20
2019-05-29T02:05:02.092Z,10.30
2019-05-29T02:06:02.079Z,10.23
2019-05-29T02:07:02.095Z,10.26
2019-05-29T02:08:02.113Z,10.04
2019-05-29T02:09:02.138Z,10.15
2019-05-29T02:10:02.143Z,10.13
2019-05-29T02:11:02.156Z,10.20
2019-05-29T02:12:02.183Z,10.10
2019-05-29T02:13:02.195Z,10.10
2019-05-29T02:14:02.211Z,9.97
2019-05-29T02:15:02.232Z,10.02
2019-05-29T02:16:02.239Z,10.05
2019-05-29T02:17:02.259Z,10.12
2019-05-29T02:18:02.311Z,10.13
2019-05-29T02:19:02.318Z,10.09
2019-05-29T02:20:02.322Z,10.12
2019-05-29T02:21:02.323Z,10.07
2019-05-29T02:22:02.342Z,10.07
2019-05-29T02:23:02.480Z,9.99
2019-05-29T02:24:02.379Z,9.91
2019-05-29T02:25:02.383Z,9.74
2019-05-29T02:26:02.411Z,9.76
2019-05-29T02:27:02.421Z,9.73
2019-05-29T02:28:02.435Z,9.62
2019-05-29T02:29:02.446Z,9.68
2019-05-29T02:30:02.472Z,9.80
2019-05-29T02:31:02.487Z,9.73
2019-05-29T02:32:02.499Z,9.79
2019-05-29T02:33:02.524Z,9.69
2019-05-29T02:34:06.491Z,9.79
2019-05-29T02:35:02.551Z,9.74
2019-05-29T02:36:02.559Z,9.62
2019-05-29T02:37:02.580Z,9.73
2019-05-29T02:38:02.600Z,9.74
2019-05-29T02:39:02.613Z,9.72
2019-05-29T02:40:02.639Z,9.72
2019-05-29T02:41:02.645Z,9.54
2019-05-29T02:42:02.669Z,9.34
2019-05-29T02:43:02.677Z,9.31
2019-05-29T02:44:02.807Z,9.40
2019-05-29T02:45:02.716Z,9.44
2019-05-29T02:46:02.719Z,9.37
2019-05-29T02:47:02.743Z,9.36
2019-05-29T02:48:02.759Z,9.21
2019-05-29T02:49:02.781Z,9.18
2019-05-29T02:50:02.785Z,9.25
2019-05-29T02:51:02.821Z,9.21
2019-05-29T02:52:02.844Z,9.23
2019-05-29T02:53:02.853Z,9.14
2019-05-29T02:54:02.869Z,9.23
2019-05-29T02:55:02.882Z,9.19
2019-05-29T02:56:02.916Z,9.13
2019-05-29T02:57:02.907Z,8.94
2019-05-29T02:58:02.931Z,8.84
2019-05-29T02:59:02.934Z,9.00
2019-05-29T03:00:02.947Z,8.95
2019-05-29T03:01:02.958Z,8.97
2019-05-29T03:02:02.982Z,9.04
2019-05-29T03:03:02.997Z,9.02
2019-05-29T03:04:03.144Z,9.04
2019-05-29T03:05:03.042Z,9.00
2019-05-29T03:06:03.084Z,9.00
2019-05-29T03:07:03.067Z,9.10
2019-05-29T03:08:03.070Z,9.00
2019-05-29T03:09:03.089Z,9.13
2019-05-29T03:10:03.182Z,9.11
2019-05-29T03:11:03.124Z,9.21
2019-05-29T03:12:03.140Z,9.06
2019-05-29T03:13:03.159Z,9.10
2019-05-29T03:14:03.174Z,9.14
2019-05-29T03:15:03.188Z,9.14
2019-05-29T03:16:11.430Z,9.11
2019-05-29T03:17:03.223Z,9.04
2019-05-29T03:18:03.229Z,9.04
2019-05-29T03:19:03.245Z,8.92
2019-05-29T03:20:03.263Z,8.99
2019-05-29T03:21:03.292Z,8.85
2019-05-29T03:22:03.292Z,8.70
2019-05-29T03:23:03.315Z,8.52
2019-05-29T03:24:03.342Z,8.31
2019-05-29T03:25:03.348Z,8.38
2019-05-29T03:26:03.360Z,8.37
2019-05-29T03:27:03.383Z,8.34
2019-05-29T03:28:03.386Z,8.24
2019-05-29T03:29:03.409Z,8.34
2019-05-29T03:30:03.415Z,8.28
2019-05-29T03:31:03.457Z,8.27
2019-05-29T03:32:03.452Z,8.38
2019-05-29T03:33:03.471Z,8.30
2019-05-29T03:34:03.482Z,8.30
2019-05-29T03:35:03.498Z,8.30
2019-05-29T03:36:03.515Z,8.24
2019-05-29T03:37:03.535Z,8.30
2019-05-29T03:38:03.548Z,8.20
2019-05-29T03:39:03.559Z,8.19
2019-05-29T03:40:03.577Z,8.26
2019-05-29T03:41:03.594Z,8.26
2019-05-29T03:42:03.615Z,8.18
2019-05-29T03:43:03.629Z,8.30
2019-05-29T03:44:03.653Z,8.30
2019-05-29T03:45:03.661Z,8.16
2019-05-29T03:46:03.666Z,8.20
2019-05-29T03:47:03.691Z,8.13
2019-05-29T03:48:03.701Z,8.06
2019-05-29T03:49:03.718Z,8.10
2019-05-29T03:50:03.732Z,7.98
2019-05-29T03:51:03.762Z,7.82
2019-05-29T03:52:03.761Z,7.82
2019-05-29T03:53:03.792Z,7.88
2019-05-29T03:54:03.793Z,7.91
2019-05-29T03:55:03.809Z,7.83
2019-05-29T03:56:03.824Z,7.83
2019-05-29T03:57:03.844Z,7.76
2019-05-29T03:58:03.854Z,7.85
2019-05-29T03:59:03.876Z,7.88
2019-05-29T04:00:03.889Z,7.94
2019-05-29T04:01:03.905Z,7.97
2019-05-29T04:02:03.918Z,8.01
2019-05-29T04:03:03.935Z,8.15
2019-05-29T04:04:03.948Z,8.16
2019-05-29T04:05:03.969Z,8.15
2019-05-29T04:06:03.984Z,8.27
2019-05-29T04:07:03.997Z,8.30
2019-05-29T04:08:04.014Z,8.46
2019-05-29T04:09:04.028Z,8.38
2019-05-29T04:10:04.046Z,8.45
2019-05-29T04:11:04.068Z,8.45
2019-05-29T04:12:04.074Z,8.37
2019-05-29T04:13:04.090Z,8.45
2019-05-29T04:14:04.121Z,8.16
2019-05-29T04:15:04.121Z,8.10
2019-05-29T04:16:04.142Z,8.09
2019-05-29T04:17:04.170Z,7.98
2019-05-29T04:18:04.169Z,7.94
2019-05-29T04:19:04.189Z,7.98
2019-05-29T04:20:04.202Z,8.12
2019-05-29T04:21:04.221Z,7.98
2019-05-29T04:22:04.231Z,7.98
2019-05-29T04:23:04.249Z,8.16
2019-05-29T04:24:04.261Z,8.23
2019-05-29T04:25:04.276Z,8.34
2019-05-29T04:26:04.296Z,8.38
2019-05-29T04:27:04.308Z,8.26
2019-05-29T04:28:04.323Z,8.19
2019-05-29T04:29:04.348Z,8.20
2019-05-29T04:30:04.357Z,8.30
2019-05-29T04:31:04.578Z,8.31
2019-05-29T04:32:04.406Z,8.30
2019-05-29T04:33:04.406Z,8.34
2019-05-29T04:34:04.420Z,8.38
2019-05-29T04:35:04.434Z,8.37
2019-05-29T04:36:04.448Z,8.53
2019-05-29T04:37:07.283Z,8.61
2019-05-29T04:38:04.554Z,8.58
2019-05-29T04:39:04.503Z,8.78
2019-05-29T04:40:04.514Z,8.97
2019-05-29T04:41:04.528Z,9.03
2019-05-29T04:42:04.541Z,9.11
2019-05-29T04:43:04.565Z,9.00
2019-05-29T04:44:04.576Z,9.14
2019-05-29T04:45:04.591Z,9.22
2019-05-29T04:46:04.606Z,9.32
2019-05-29T04:47:11.054Z,9.37
2019-05-29T04:48:04.638Z,9.31
2019-05-29T04:49:04.656Z,9.31
2019-05-29T04:50:04.667Z,9.55
2019-05-29T04:51:04.684Z,9.61
2019-05-29T04:52:04.698Z,10.05
2019-05-29T04:53:04.719Z,10.68
2019-05-29T04:54:04.731Z,11.43
2019-05-29T04:55:04.746Z,12.04
2019-05-29T04:56:04.768Z,12.67
2019-05-29T04:57:04.784Z,13.23
2019-05-29T04:58:04.801Z,13.85
2019-05-29T04:59:04.821Z,14.30
2019-05-29T05:00:04.830Z,15.06
2019-05-29T05:01:04.849Z,15.42
2019-05-29T05:02:04.870Z,15.57
2019-05-29T05:03:04.887Z,15.83
2019-05-29T05:04:04.910Z,15.90
2019-05-29T05:05:04.927Z,16.09
2019-05-29T05:06:04.945Z,16.32
2019-05-29T05:07:04.974Z,16.60
2019-05-29T05:08:04.988Z,17.31
2019-05-29T05:09:05.012Z,17.72
2019-05-29T05:10:05.026Z,18.55
2019-05-29T05:11:05.051Z,19.26
2019-05-29T05:12:05.067Z,18.98
2019-05-29T05:13:05.096Z,18.35
2019-05-29T05:14:05.128Z,17.97
2019-05-29T05:15:05.132Z,18.44
2019-05-29T05:16:05.150Z,18.92
2019-05-29T05:17:05.173Z,19.11
2019-05-29T05:18:05.195Z,19.07
2019-05-29T05:19:05.216Z,19.82
2019-05-29T05:20:05.240Z,19.92
2019-05-29T05:21:05.269Z,19.92
2019-05-29T05:22:05.292Z,19.76
2019-05-29T05:23:05.306Z,19.88
2019-05-29T05:24:05.329Z,19.82
2019-05-29T05:25:05.352Z,19.69
2019-05-29T05:26:05.375Z,19.74
2019-05-29T05:27:05.400Z,20.24
2019-05-29T05:28:05.430Z,20.39
2019-05-29T05:29:05.444Z,20.07
2019-05-29T05:30:08.753Z,19.81
2019-05-29T05:31:05.488Z,19.67
2019-05-29T05:32:05.510Z,19.84
2019-05-29T05:33:05.539Z,19.95
2019-05-29T05:34:05.573Z,19.86
2019-05-29T05:35:05.581Z,19.51
2019-05-29T05:36:05.608Z,19.62
2019-05-29T05:37:05.628Z,19.81
2019-05-29T05:38:05.656Z,20.44
2019-05-29T05:39:05.674Z,20.72
2019-05-29T05:40:05.698Z,20.70
2019-05-29T05:41:05.724Z,20.36
2019-05-29T05:42:05.747Z,20.06
2019-05-29T05:43:05.769Z,20.19
2019-05-29T05:44:05.792Z,20.69
2019-05-29T05:45:05.819Z,20.28
2019-05-29T05:46:05.841Z,20.22
2019-05-29T05:47:05.871Z,20.41
2019-05-29T05:48:05.888Z,20.36
2019-05-29T05:49:05.910Z,20.18
2019-05-29T05:50:05.936Z,20.34
2019-05-29T05:51:05.960Z,21.00
2019-05-29T05:52:05.984Z,20.97
2019-05-29T05:53:06.018Z,20.93
2019-05-29T05:54:06.032Z,20.80
2019-05-29T05:55:06.056Z,20.56
2019-05-29T05:56:06.078Z,20.77
2019-05-29T05:57:06.109Z,20.99
2019-05-29T05:58:06.128Z,20.99
2019-05-29T05:59:06.276Z,21.11
2019-05-29T06:00:06.173Z,22.11
2019-05-29T06:01:06.200Z,22.14
2019-05-29T06:02:06.224Z,21.42
2019-05-29T06:03:06.255Z,21.35
2019-05-29T06:04:06.274Z,21.46
2019-05-29T06:05:06.295Z,21.22
2019-05-29T06:06:06.322Z,21.85
2019-05-29T06:07:06.344Z,21.72
2019-05-29T06:08:06.367Z,21.50
2019-05-29T06:09:06.394Z,21.57
2019-05-29T06:10:06.420Z,21.55
2019-05-29T06:11:06.441Z,22.59
2019-05-29T06:12:06.465Z,23.69
2019-05-29T06:13:06.493Z,24.43
2019-05-29T06:14:06.514Z,23.62
2019-05-29T06:15:06.539Z,24.33
2019-05-29T06:16:06.561Z,24.38
2019-05-29T06:17:06.592Z,23.99
2019-05-29T06:18:20.395Z,23.43
2019-05-29T06:19:06.638Z,22.81
2019-05-29T06:20:06.663Z,21.73
2019-05-29T06:21:06.685Z,21.29
2019-05-29T06:22:06.710Z,21.50
2019-05-29T06:23:06.738Z,21.42
2019-05-29T06:24:06.803Z,21.05
2019-05-29T06:25:06.908Z,21.14
2019-05-29T06:26:06.808Z,21.06
2019-05-29T06:27:06.835Z,21.20
2019-05-29T06:28:06.851Z,21.22
2019-05-29T06:29:06.919Z,21.07
2019-05-29T06:30:07.054Z,20.90
2019-05-29T06:31:06.940Z,20.95
2019-05-29T06:32:06.989Z,20.90
2019-05-29T06:33:06.995Z,21.02
2019-05-29T06:34:07.012Z,20.97
2019-05-29T06:35:07.036Z,21.21
2019-05-29T06:36:07.052Z,21.46
2019-05-29T06:37:07.094Z,21.14
2019-05-29T06:38:07.102Z,21.52
2019-05-29T06:39:07.132Z,21.73
2019-05-29T06:40:07.150Z,21.79
2019-05-29T06:41:07.184Z,21.51
2019-05-29T06:42:07.189Z,20.82
2019-05-29T06:43:07.216Z,19.30
2019-05-29T06:44:07.236Z,19.11
2019-05-29T06:45:07.503Z,19.62
2019-05-29T06:46:07.298Z,20.24
2019-05-29T06:47:07.313Z,20.36
2019-05-29T06:48:07.327Z,20.16
2019-05-29T06:49:07.356Z,19.59
2019-05-29T06:50:07.373Z,19.36
2019-05-29T06:51:07.402Z,19.81
2019-05-29T06:52:09.286Z,18.75
2019-05-29T06:53:07.450Z,18.60
2019-05-29T06:54:07.472Z,19.22
2019-05-29T06:55:07.492Z,19.88
2019-05-29T06:56:07.535Z,19.48
2019-05-29T06:57:07.531Z,20.19
2019-05-29T06:58:07.558Z,20.14
2019-05-29T06:59:07.579Z,19.66
2019-05-29T07:00:07.613Z,19.54
2019-05-29T07:01:07.632Z,18.84
2019-05-29T07:02:07.646Z,19.11
2019-05-29T07:03:07.668Z,18.95
2019-05-29T07:04:11.874Z,19.49
2019-05-29T07:05:07.719Z,18.70
2019-05-29T07:06:07.758Z,19.04
2019-05-29T07:07:07.757Z,19.48
2019-05-29T07:08:19.230Z,20.11
2019-05-29T07:09:07.803Z,20.67
2019-05-29T07:10:07.824Z,20.06
2019-05-29T07:11:07.844Z,20.60
2019-05-29T07:12:07.869Z,20.69
2019-05-29T07:13:07.890Z,20.87
2019-05-29T07:14:07.917Z,21.18
2019-05-29T07:15:07.938Z,21.55
2019-05-29T07:16:07.955Z,21.12
2019-05-29T07:17:07.979Z,21.70
2019-05-29T07:18:08.004Z,21.57
2019-05-29T07:19:25.226Z,19.92
2019-05-29T07:20:08.055Z,19.14
2019-05-29T07:21:08.070Z,18.99
2019-05-29T07:22:08.090Z,18.99
2019-05-29T07:23:08.112Z,18.45
2019-05-29T07:24:08.139Z,18.33
2019-05-29T07:25:08.161Z,18.96
2019-05-29T07:26:08.182Z,19.82
2019-05-29T07:27:13.184Z,19.81
2019-05-29T07:28:08.221Z,19.52
2019-05-29T07:29:08.745Z,19.40
2019-05-29T07:30:08.271Z,19.89
2019-05-29T07:31:08.286Z,19.79
2019-05-29T07:32:08.306Z,19.55
2019-05-29T07:33:08.342Z,19.14
2019-05-29T07:34:08.356Z,19.73
2019-05-29T07:35:08.379Z,20.13
2019-05-29T07:36:08.394Z,20.70
2019-05-29T07:37:08.418Z,20.56
2019-05-29T07:38:08.437Z,20.56
2019-05-29T07:39:08.462Z,20.19
2019-05-29T07:40:08.482Z,19.76
2019-05-29T07:41:08.521Z,20.26
2019-05-29T07:42:08.530Z,20.88
2019-05-29T07:43:08.560Z,21.52
2019-05-29T07:44:08.569Z,21.89
2019-05-29T07:45:08.593Z,21.29
2019-05-29T07:46:08.615Z,21.61
2019-05-29T07:47:09.963Z,21.36
2019-05-29T07:48:08.666Z,20.90
2019-05-29T07:49:08.684Z,21.05
2019-05-29T07:50:08.701Z,21.18
2019-05-29T07:51:08.724Z,21.11
2019-05-29T07:52:08.747Z,20.90
2019-05-29T07:53:08.775Z,21.15
2019-05-29T07:54:08.794Z,21.14
2019-05-29T07:55:08.878Z,21.17
2019-05-29T07:56:21.641Z,21.52
2019-05-29T07:57:08.859Z,21.80
2019-05-29T07:58:08.883Z,21.21
2019-05-29T07:59:08.913Z,21.52
2019-05-29T08:00:08.930Z,22.17
2019-05-29T08:01:13.374Z,22.66
2019-05-29T08:02:08.977Z,22.28
2019-05-29T08:03:09.004Z,22.10
2019-05-29T08:04:09.021Z,22.32
2019-05-29T08:05:09.047Z,22.06
2019-05-29T08:06:09.097Z,22.29
2019-05-29T08:07:09.096Z,22.35
2019-05-29T08:08:09.120Z,21.98
2019-05-29T08:09:09.137Z,21.73
2019-05-29T08:10:09.164Z,21.51
2019-05-29T08:11:09.187Z,20.36
2019-05-29T08:12:09.210Z,20.14
2019-05-29T08:13:09.232Z,19.27
2019-05-29T08:14:09.261Z,18.89
2019-05-29T08:15:09.306Z,19.14
2019-05-29T08:16:09.302Z,19.56
2019-05-29T08:17:09.332Z,19.15
2019-05-29T08:18:09.347Z,18.83
2019-05-29T08:19:09.386Z,19.11
2019-05-29T08:20:09.394Z,18.86
2019-05-29T08:21:09.411Z,19.15
2019-05-29T08:22:09.432Z,19.88
2019-05-29T08:23:09.540Z,20.62
2019-05-29T08:24:09.479Z,21.17
2019-05-29T08:25:09.493Z,21.67
2019-05-29T08:26:09.515Z,21.48
2019-05-29T08:27:09.538Z,21.12
2019-05-29T08:28:09.558Z,20.99
2019-05-29T08:29:09.575Z,20.88
2019-05-29T08:30:09.595Z,20.97
2019-05-29T08:31:09.641Z,20.81
2019-05-29T08:32:09.638Z,20.06
2019-05-29T08:33:09.658Z,19.88
2019-05-29T08:34:09.684Z,20.06
2019-05-29T08:35:09.705Z,20.02
2019-05-29T08:36:09.723Z,20.24
2019-05-29T08:37:09.740Z,19.36
2019-05-29T08:38:09.766Z,19.16
2019-05-29T08:39:09.787Z,19.27
2019-05-29T08:40:09.801Z,19.18
2019-05-29T08:41:09.839Z,19.02
2019-05-29T08:42:22.777Z,19.26
2019-05-29T08:43:09.870Z,19.15
2019-05-29T08:44:09.890Z,18.49
2019-05-29T08:45:09.935Z,18.63
2019-05-29T08:46:09.927Z,18.92
2019-05-29T08:47:11.064Z,18.98
2019-05-29T08:48:09.966Z,19.15
2019-05-29T08:49:09.984Z,18.63
2019-05-29T08:50:18.136Z,18.40
2019-05-29T08:51:10.022Z,18.08
2019-05-29T08:52:12.358Z,17.97
2019-05-29T08:53:10.063Z,18.25
2019-05-29T08:54:23.552Z,18.18
2019-05-29T08:55:10.103Z,18.01
2019-05-29T08:56:10.135Z,17.70
2019-05-29T08:57:10.160Z,18.05
2019-05-29T08:58:10.168Z,17.94
2019-05-29T08:59:10.179Z,18.03
2019-05-29T09:00:10.200Z,18.01
2019-05-29T09:01:10.222Z,18.28
2019-05-29T09:02:10.248Z,18.43
2019-05-29T09:03:10.269Z,18.60
2019-05-29T09:04:10.279Z,18.89
2019-05-29T09:05:10.297Z,18.83
2019-05-29T09:06:13.487Z,18.83
2019-05-29T09:07:10.334Z,19.09
2019-05-29T09:08:10.359Z,19.07
2019-05-29T09:09:10.371Z,18.65
2019-05-29T09:10:10.399Z,18.47
2019-05-29T09:11:10.417Z,18.45
2019-05-29T09:12:10.427Z,18.78
2019-05-29T09:13:10.450Z,18.88
2019-05-29T09:14:10.470Z,18.90
2019-05-29T09:15:10.768Z,18.90
2019-05-29T09:16:10.515Z,18.83
2019-05-29T09:17:11.906Z,19.12
2019-05-29T09:18:10.544Z,18.92
2019-05-29T09:19:10.573Z,18.63
2019-05-29T09:20:26.204Z,18.47
2019-05-29T09:21:10.606Z,18.80
2019-05-29T09:22:10.625Z,18.68
2019-05-29T09:23:10.645Z,18.75
2019-05-29T09:24:10.712Z,18.93
2019-05-29T09:25:10.683Z,19.12
2019-05-29T09:26:15.878Z,19.31
2019-05-29T09:27:10.721Z,19.73
2019-05-29T09:28:10.737Z,19.91
2019-05-29T09:29:10.763Z,20.26
2019-05-29T09:30:10.774Z,20.47
2019-05-29T09:31:10.799Z,20.36
2019-05-29T09:32:10.814Z,19.79
2019-05-29T09:33:10.836Z,19.81
2019-05-29T09:34:10.852Z,19.91
2019-05-29T09:35:10.876Z,19.66
2019-05-29T09:36:10.894Z,19.58
2019-05-29T09:37:11.017Z,19.55
2019-05-29T09:38:10.930Z,19.84
2019-05-29T09:39:10.951Z,19.74
2019-05-29T09:40:10.969Z,19.89
2019-05-29T09:41:10.987Z,19.49
2019-05-29T09:42:11.008Z,19.33
2019-05-29T09:43:11.025Z,19.70
2019-05-29T09:44:26.791Z,19.55
2019-05-29T09:45:11.071Z,19.77
2019-05-29T09:46:11.944Z,20.11
2019-05-29T09:47:11.107Z,20.02
2019-05-29T09:48:11.171Z,19.84
2019-05-29T09:49:11.146Z,19.71
2019-05-29T09:50:11.171Z,19.30
2019-05-29T09:51:21.172Z,19.67
2019-05-29T09:52:11.204Z,19.81
2019-05-29T09:53:11.242Z,19.76
2019-05-29T09:54:11.295Z,19.92
2019-05-29T09:55:11.266Z,20.11
2019-05-29T09:56:11.283Z,20.58
2019-05-29T09:57:14.610Z,20.39
2019-05-29T09:58:11.328Z,19.85
2019-05-29T09:59:11.342Z,20.32
2019-05-29T10:00:11.362Z,20.39
2019-05-29T10:01:22.915Z,20.16
2019-05-29T10:02:11.419Z,19.52
2019-05-29T10:03:11.424Z,19.52
2019-05-29T10:04:11.440Z,19.37
2019-05-29T10:05:11.474Z,19.48
2019-05-29T10:06:11.479Z,19.30
2019-05-29T10:07:11.501Z,18.92
2019-05-29T10:08:11.534Z,18.75
2019-05-29T10:09:11.540Z,18.88
2019-05-29T10:10:11.574Z,18.71
2019-05-29T10:11:11.614Z,18.55
2019-05-29T10:12:11.598Z,18.77
2019-05-29T10:13:11.623Z,18.80
2019-05-29T10:14:11.639Z,18.83
2019-05-29T10:15:11.660Z,19.30
2019-05-29T10:16:11.679Z,18.89
2019-05-29T10:17:12.895Z,19.15
2019-05-29T10:18:30.728Z,19.18
2019-05-29T10:19:11.739Z,19.15
2019-05-29T10:20:11.757Z,19.22
2019-05-29T10:21:11.775Z,19.12
2019-05-29T10:22:11.798Z,19.39
2019-05-29T10:23:11.813Z,19.63
2019-05-29T10:24:11.833Z,20.04
2019-05-29T10:25:11.861Z,20.41
2019-05-29T10:26:11.875Z,20.55
2019-05-29T10:27:11.891Z,20.50
2019-05-29T10:28:11.930Z,19.99
2019-05-29T10:29:11.958Z,19.99
2019-05-29T10:30:11.965Z,20.51
2019-05-29T10:31:11.972Z,21.00
2019-05-29T10:32:11.990Z,21.32
2019-05-29T10:33:12.009Z,21.42
2019-05-29T10:34:12.029Z,21.39
2019-05-29T10:35:12.053Z,21.00
2019-05-29T10:36:12.088Z,20.43
2019-05-29T10:37:12.104Z,20.41
2019-05-29T10:38:12.112Z,20.16
2019-05-29T10:39:13.072Z,20.26
2019-05-29T10:40:12.154Z,20.58
2019-05-29T10:41:12.174Z,20.74
2019-05-29T10:42:12.191Z,20.19
2019-05-29T10:43:12.212Z,20.60
2019-05-29T10:44:13.081Z,20.69
2019-05-29T10:45:12.251Z,20.25
2019-05-29T10:46:12.275Z,20.67
2019-05-29T10:47:12.292Z,20.67
2019-05-29T10:48:12.314Z,20.03
2019-05-29T10:49:12.349Z,19.71
2019-05-29T10:50:12.386Z,19.45
2019-05-29T10:51:12.371Z,19.19
2019-05-29T10:52:16.830Z,19.02
2019-05-29T10:53:12.414Z,19.31
2019-05-29T10:54:12.432Z,19.69
2019-05-29T10:55:12.453Z,19.94
2019-05-29T10:56:12.473Z,20.44
2019-05-29T10:57:12.499Z,20.69
2019-05-29T10:58:12.516Z,20.78
2019-05-29T10:59:12.537Z,21.14
2019-05-29T11:00:12.554Z,21.05
2019-05-29T11:01:12.573Z,20.85
2019-05-29T11:02:12.602Z,21.02
2019-05-29T11:03:12.621Z,21.27
2019-05-29T11:04:12.637Z,20.95
2019-05-29T11:05:12.654Z,21.02
2019-05-29T11:06:12.683Z,21.00
2019-05-29T11:07:12.693Z,21.05
2019-05-29T11:08:12.837Z,21.05
2019-05-29T11:09:12.743Z,21.07
2019-05-29T11:10:13.548Z,21.17
2019-05-29T11:11:12.796Z,21.54
2019-05-29T11:12:12.810Z,21.05
2019-05-29T11:13:12.966Z,20.97
2019-05-29T11:14:12.839Z,20.28
2019-05-29T11:15:21.409Z,19.99
2019-05-29T11:16:12.881Z,20.24
2019-05-29T11:17:12.894Z,20.26
2019-05-29T11:18:12.928Z,19.77
2019-05-29T11:19:12.956Z,19.89
2019-05-29T11:20:12.965Z,20.39
2019-05-29T11:21:12.983Z,19.84
2019-05-29T11:22:25.902Z,19.73
2019-05-29T11:23:13.031Z,19.55
2019-05-29T11:24:13.042Z,19.67
2019-05-29T11:25:23.378Z,19.24
2019-05-29T11:26:13.079Z,19.41
2019-05-29T11:27:13.103Z,19.73
2019-05-29T11:28:13.117Z,19.45
2019-05-29T11:29:13.142Z,19.84
2019-05-29T11:30:13.161Z,20.39
2019-05-29T11:31:13.183Z,20.88
2019-05-29T11:32:13.198Z,21.00
2019-05-29T11:33:13.227Z,21.37
2019-05-29T11:34:13.260Z,21.76
2019-05-29T11:35:13.260Z,21.72
2019-05-29T11:36:13.758Z,21.37
2019-05-29T11:37:13.313Z,21.51
2019-05-29T11:38:13.360Z,21.45
2019-05-29T11:39:13.351Z,21.60
2019-05-29T11:40:13.360Z,21.37
2019-05-29T11:41:26.069Z,21.35
2019-05-29T11:42:26.464Z,21.70
2019-05-29T11:43:13.425Z,21.96
2019-05-29T11:44:13.447Z,21.93
2019-05-29T11:45:13.459Z,22.07
2019-05-29T11:46:13.486Z,21.91
2019-05-29T11:47:13.508Z,22.23
2019-05-29T11:48:13.520Z,22.53
2019-05-29T11:49:13.552Z,22.33
2019-05-29T11:50:19.718Z,22.10
2019-05-29T11:51:13.583Z,21.98
2019-05-29T11:52:24.335Z,21.12
2019-05-29T11:53:13.632Z,20.90
2019-05-29T11:54:13.642Z,21.42
2019-05-29T11:55:13.665Z,21.45
2019-05-29T11:56:13.684Z,21.96
2019-05-29T11:57:13.706Z,21.96
2019-05-29T11:58:29.973Z,20.69
2019-05-29T11:59:13.745Z,20.48
2019-05-29T12:00:19.870Z,20.28
2019-05-29T12:01:13.786Z,20.63
2019-05-29T12:02:13.825Z,20.95
2019-05-29T12:03:13.828Z,20.99
2019-05-29T12:04:25.902Z,20.74
2019-05-29T12:05:13.870Z,20.40
2019-05-29T12:06:13.962Z,19.88
2019-05-29T12:07:13.908Z,19.73
2019-05-29T12:08:13.930Z,19.16
2019-05-29T12:09:30.891Z,19.49
2019-05-29T12:10:14.119Z,19.64
2019-05-29T12:11:13.990Z,19.91
2019-05-29T12:12:14.085Z,20.24
2019-05-29T12:13:14.028Z,20.43
2019-05-29T12:14:14.088Z,20.04
2019-05-29T12:15:16.374Z,20.09
2019-05-29T12:16:14.089Z,20.25
2019-05-29T12:17:14.111Z,20.18
2019-05-29T12:18:23.473Z,19.74
2019-05-29T12:19:14.145Z,19.62
2019-05-29T12:20:27.265Z,19.47
2019-05-29T12:21:14.185Z,19.21
2019-05-29T12:22:14.211Z,19.07
2019-05-29T12:23:25.826Z,18.88
2019-05-29T12:24:14.245Z,19.02
2019-05-29T12:25:14.265Z,18.98
2019-05-29T12:26:22.309Z,19.02
2019-05-29T12:27:14.307Z,18.86
2019-05-29T12:28:14.359Z,18.96
2019-05-29T12:29:14.346Z,19.04
2019-05-29T12:30:14.362Z,18.99
2019-05-29T12:31:14.383Z,19.04
2019-05-29T12:32:14.424Z,18.95
2019-05-29T12:33:14.420Z,19.09
2019-05-29T12:34:19.180Z,19.09
2019-05-29T12:35:14.456Z,19.27
2019-05-29T12:36:14.474Z,19.49
2019-05-29T12:37:14.499Z,19.52
2019-05-29T12:38:14.516Z,19.70
2019-05-29T12:39:14.536Z,19.79
2019-05-29T12:40:14.553Z,20.25
2019-05-29T12:41:14.574Z,20.67
2019-05-29T12:42:14.596Z,20.63
2019-05-29T12:43:26.817Z,21.06
2019-05-29T12:44:14.636Z,21.03
2019-05-29T12:45:14.653Z,21.09
2019-05-29T12:46:14.673Z,20.75
2019-05-29T12:47:14.691Z,20.72
2019-05-29T12:48:15.894Z,20.62
2019-05-29T12:49:14.732Z,20.66
2019-05-29T12:50:14.752Z,20.63
2019-05-29T12:51:14.777Z,20.55
2019-05-29T12:52:14.796Z,20.52
2019-05-29T12:53:29.521Z,20.52
2019-05-29T12:54:14.833Z,20.59
2019-05-29T12:55:14.855Z,20.96
2019-05-29T12:56:14.873Z,21.42
2019-05-29T12:57:14.895Z,21.17
2019-05-29T12:58:14.912Z,20.99